メインページ
METAR-TAF:

METAR-TAF

空港 :

メンドーサ, アルゼンチン

緯度: 32-50S, 経度: 068-47W, 海抜: 705m

現時点の気象観測

当レポートは18分前の06:00(UTC)に作成
の風 4kt
気温 21°C
湿度 83%
気圧 1014 hPa
視程10km以上
高度4500ftの千切れ雲あり

METAR: SAME 280600Z 18004KT 9999 BKN045 21/18 Q1014

時間: 03:18 (06:18 UTC)

予報

当レポートは1時間18分前の05:00(UTC)に作成
予報は28日の 06時(UTC)から 29日の 06時(UTC)まで有効
南東の風 5kt
視程10km以上
高度4000ftの雲は散在している
高度5000ftの雲はほとんどない, 積乱雲.
近辺で激しい雷雨, 雨
28日の 08時(UTC)から 28日の 10時(UTC)まで徐々に
南/南東の風 5kt
視程10km以上
高度4000ftの雲は散在している
28日の 15時(UTC)から 28日の 18時(UTC)まで徐々に
北東の風 10kt
視程: 6000m
高度4000ftの千切れ雲あり
高度5000ftの雲はほとんどない, 積乱雲.

TAF: SAME 280500Z 2806/2906 14005KT 9999 VCTSRA SCT040 FEW050CB TX30/2820Z TN18/2810Z BECMG 2808/2810 16005KT 9999 SCT040 BECMG 2815/2818 05010KT 6000 TSSHRA BKN040 FEW050CB

4,000以上の空港の気象観測と天気予報(METAR報とTAF報)

利用可能な観測所は地図上に黄色い丸と赤い丸で示す。

丸の上にカーソルを重ねると観測所名を参照できる。

次にクリックすると気象観測と天気予報を参照できる。

マップの切り替え:黒色「×」印の緑ボタンをクリックして拡大、「-」印の緑ボタンをクリックして縮小、緑色の三角印をクリックして隣りの地図に切り替え


METAR-TAF: